sensor_id;sensor_type;location;lat;lon;timestamp;pressure;altitude;pressure_sealevel;temperature;humidity
71764;BME280;59602;52.142;5.408;2023-08-31T00:01:40;100877.41;;;12.86;91.58
71764;BME280;59602;52.142;5.408;2023-08-31T00:04:06;100885.19;;;12.87;91.64
71764;BME280;59602;52.142;5.408;2023-08-31T00:06:37;100887.53;;;12.85;91.90
71764;BME280;59602;52.142;5.408;2023-08-31T00:09:04;100873.88;;;12.85;92.54
71764;BME280;59602;52.142;5.408;2023-08-31T00:11:35;100871.97;;;12.82;92.10
71764;BME280;59602;52.142;5.408;2023-08-31T00:14:05;100881.31;;;12.81;92.58
71764;BME280;59602;52.142;5.408;2023-08-31T00:16:34;100873.53;;;12.80;92.92
71764;BME280;59602;52.142;5.408;2023-08-31T00:19:17;100864.19;;;12.77;93.28
71764;BME280;59602;52.142;5.408;2023-08-31T00:21:46;100866.13;;;12.77;93.53
71764;BME280;59602;52.142;5.408;2023-08-31T00:24:12;100873.53;;;12.80;93.59
71764;BME280;59602;52.142;5.408;2023-08-31T00:26:40;100872.72;;;12.83;93.61
71764;BME280;59602;52.142;5.408;2023-08-31T00:29:09;100857.94;;;12.84;93.82
71764;BME280;59602;52.142;5.408;2023-08-31T00:31:40;100871.97;;;12.86;93.61
71764;BME280;59602;52.142;5.408;2023-08-31T00:34:11;100863.38;;;12.87;93.81
71764;BME280;59602;52.142;5.408;2023-08-31T00:36:41;100868.47;;;12.82;94.13
71764;BME280;59602;52.142;5.408;2023-08-31T00:39:08;100880.91;;;12.83;94.28
71764;BME280;59602;52.142;5.408;2023-08-31T00:41:37;100876.66;;;12.82;94.72
71764;BME280;59602;52.142;5.408;2023-08-31T00:44:06;100877.81;;;12.81;94.78
71764;BME280;59602;52.142;5.408;2023-08-31T00:47:17;100884.03;;;12.81;95.24
71764;BME280;59602;52.142;5.408;2023-08-31T00:49:43;100878.97;;;12.83;95.03
71764;BME280;59602;52.142;5.408;2023-08-31T00:52:10;100875.84;;;12.85;95.43
71764;BME280;59602;52.142;5.408;2023-08-31T00:54:43;100874.28;;;12.87;95.57
71764;BME280;59602;52.142;5.408;2023-08-31T00:57:58;100873.13;;;12.88;95.45
71764;BME280;59602;52.142;5.408;2023-08-31T01:00:50;100858.28;;;12.90;95.59
71764;BME280;59602;52.142;5.408;2023-08-31T01:15:04;100868.84;;;12.84;95.95
71764;BME280;59602;52.142;5.408;2023-08-31T01:18:16;100867.28;;;12.83;95.79
71764;BME280;59602;52.142;5.408;2023-08-31T01:20:58;100861.44;;;12.81;96.18
71764;BME280;59602;52.142;5.408;2023-08-31T01:23:51;100873.13;;;12.81;96.35
71764;BME280;59602;52.142;5.408;2023-08-31T01:26:40;100875.47;;;12.86;96.27
71764;BME280;59602;52.142;5.408;2023-08-31T01:33:04;100863.75;;;12.90;96.26
71764;BME280;59602;52.142;5.408;2023-08-31T01:46:33;100890.63;;;12.95;96.39
71764;BME280;59602;52.142;5.408;2023-08-31T01:49:38;100903.53;;;12.91;96.47
71764;BME280;59602;52.142;5.408;2023-08-31T01:52:52;100911.28;;;13.03;96.48
71764;BME280;59602;52.142;5.408;2023-08-31T02:00:28;100903.44;;;13.16;96.88
71764;BME280;59602;52.142;5.408;2023-08-31T02:08:00;100904.19;;;13.23;96.26
71764;BME280;59602;52.142;5.408;2023-08-31T02:11:45;100894.84;;;13.28;95.61
71764;BME280;59602;52.142;5.408;2023-08-31T02:29:28;100911.19;;;13.42;97.10
71764;BME280;59602;52.142;5.408;2023-08-31T02:32:05;100894.38;;;13.44;97.23
71764;BME280;59602;52.142;5.408;2023-08-31T02:34:32;100899.06;;;13.43;97.64
71764;BME280;59602;52.142;5.408;2023-08-31T02:36:59;100903.75;;;13.43;97.48
71764;BME280;59602;52.142;5.408;2023-08-31T02:39:34;100901.84;;;13.40;96.99
71764;BME280;59602;52.142;5.408;2023-08-31T02:45:08;100890.09;;;13.43;97.10
71764;BME280;59602;52.142;5.408;2023-08-31T03:08:13;100888.56;;;13.42;97.58
71764;BME280;59602;52.142;5.408;2023-08-31T03:11:23;100901.84;;;13.36;97.46
71764;BME280;59602;52.142;5.408;2023-08-31T03:13:51;100890.16;;;13.32;97.41
71764;BME280;59602;52.142;5.408;2023-08-31T03:16:18;100888.59;;;13.31;97.58
71764;BME280;59602;52.142;5.408;2023-08-31T03:18:44;100891.34;;;13.31;97.78
71764;BME280;59602;52.142;5.408;2023-08-31T03:21:14;100894.06;;;13.31;97.68
71764;BME280;59602;52.142;5.408;2023-08-31T03:23:43;100904.94;;;13.35;97.70
71764;BME280;59602;52.142;5.408;2023-08-31T03:26:12;100899.91;;;13.33;98.00
71764;BME280;59602;52.142;5.408;2023-08-31T03:28:39;100899.91;;;13.29;98.06
71764;BME280;59602;52.142;5.408;2023-08-31T03:31:07;100894.84;;;13.28;97.92
71764;BME280;59602;52.142;5.408;2023-08-31T03:33:34;100879.22;;;13.32;98.27
71764;BME280;59602;52.142;5.408;2023-08-31T03:36:05;100884.69;;;13.36;98.38
71764;BME280;59602;52.142;5.408;2023-08-31T03:51:00;100920.59;;;13.20;97.62
71764;BME280;59602;52.142;5.408;2023-08-31T03:53:27;100915.16;;;13.16;97.88
71764;BME280;59602;52.142;5.408;2023-08-31T03:55:54;100901.50;;;13.13;97.84
71764;BME280;59602;52.142;5.408;2023-08-31T03:58:21;100902.69;;;13.08;97.99
71764;BME280;59602;52.142;5.408;2023-08-31T04:00:50;100910.47;;;13.06;98.16
71764;BME280;59602;52.142;5.408;2023-08-31T04:03:17;100902.28;;;13.06;98.45
71764;BME280;59602;52.142;5.408;2023-08-31T04:09:33;100914.41;;;13.08;98.87
71764;BME280;59602;52.142;5.408;2023-08-31T04:14:43;100907.38;;;13.11;99.25
71764;BME280;59602;52.142;5.408;2023-08-31T04:17:10;100903.06;;;13.14;99.44
71764;BME280;59602;52.142;5.408;2023-08-31T04:19:37;100906.19;;;13.16;99.19
71764;BME280;59602;52.142;5.408;2023-08-31T04:22:32;100903.84;;;13.18;99.10
71764;BME280;59602;52.142;5.408;2023-08-31T04:26:00;100912.41;;;13.20;99.02
71764;BME280;59602;52.142;5.408;2023-08-31T04:54:24;100942.81;;;13.25;99.35
71764;BME280;59602;52.142;5.408;2023-08-31T05:01:15;100950.59;;;13.23;99.38
71764;BME280;59602;52.142;5.408;2023-08-31T05:04:59;100968.19;;;13.22;99.67
71764;BME280;59602;52.142;5.408;2023-08-31T05:32:19;100988.81;;;13.45;99.96
71764;BME280;59602;52.142;5.408;2023-08-31T05:34:48;100989.59;;;13.49;100.00
71764;BME280;59602;52.142;5.408;2023-08-31T05:37:36;100988.41;;;13.54;99.80
71764;BME280;59602;52.142;5.408;2023-08-31T05:40:37;100979.78;;;13.59;100.00
71764;BME280;59602;52.142;5.408;2023-08-31T05:43:48;100984.88;;;13.57;99.87
71764;BME280;59602;52.142;5.408;2023-08-31T05:50:25;100996.94;;;13.59;99.50
71764;BME280;59602;52.142;5.408;2023-08-31T05:53:00;101002.41;;;13.63;99.50
71764;BME280;59602;52.142;5.408;2023-08-31T05:55:30;101003.19;;;13.67;99.91
71764;BME280;59602;52.142;5.408;2023-08-31T05:58:32;101009.03;;;13.69;99.90
71764;BME280;59602;52.142;5.408;2023-08-31T06:02:03;101020.72;;;13.73;100.00
71764;BME280;59602;52.142;5.408;2023-08-31T06:04:38;101029.31;;;13.72;99.68
71764;BME280;59602;52.142;5.408;2023-08-31T06:07:22;101035.56;;;13.68;99.98
71764;BME280;59602;52.142;5.408;2023-08-31T06:10:23;101029.31;;;13.68;99.57
71764;BME280;59602;52.142;5.408;2023-08-31T06:13:16;101032.06;;;13.68;100.00
71764;BME280;59602;52.142;5.408;2023-08-31T06:16:05;101030.47;;;13.70;99.98
71764;BME280;59602;52.142;5.408;2023-08-31T06:18:35;101022.31;;;13.67;99.91
71764;BME280;59602;52.142;5.408;2023-08-31T06:21:02;101024.63;;;13.68;99.96
71764;BME280;59602;52.142;5.408;2023-08-31T06:23:49;101037.13;;;13.66;99.89
71764;BME280;59602;52.142;5.408;2023-08-31T06:26:26;101037.94;;;13.66;100.00
71764;BME280;59602;52.142;5.408;2023-08-31T06:29:20;101028.94;;;13.66;99.99
71764;BME280;59602;52.142;5.408;2023-08-31T06:32:21;101026.97;;;13.70;100.00
71764;BME280;59602;52.142;5.408;2023-08-31T06:50:34;101026.97;;;13.74;99.70
71764;BME280;59602;52.142;5.408;2023-08-31T06:53:43;101028.06;;;13.90;100.00
71764;BME280;59602;52.142;5.408;2023-08-31T06:56:10;101031.91;;;14.07;99.98
71764;BME280;59602;52.142;5.408;2023-08-31T06:58:57;101042.34;;;14.23;99.77
71764;BME280;59602;52.142;5.408;2023-08-31T07:01:29;101042.72;;;14.29;99.12
71764;BME280;59602;52.142;5.408;2023-08-31T07:03:56;101042.69;;;14.36;98.96
71764;BME280;59602;52.142;5.408;2023-08-31T07:06:23;101053.66;;;14.29;98.54
71764;BME280;59602;52.142;5.408;2023-08-31T07:08:49;101049.34;;;14.28;99.20
71764;BME280;59602;52.142;5.408;2023-08-31T07:11:18;101048.16;;;14.32;99.12
71764;BME280;59602;52.142;5.408;2023-08-31T07:13:46;101057.84;;;14.48;98.78
71764;BME280;59602;52.142;5.408;2023-08-31T07:16:12;101055.47;;;14.50;98.89
71764;BME280;59602;52.142;5.408;2023-08-31T07:18:39;101062.91;;;14.49;98.58
71764;BME280;59602;52.142;5.408;2023-08-31T07:21:06;101057.44;;;14.49;98.83
71764;BME280;59602;52.142;5.408;2023-08-31T07:23:33;101054.28;;;14.51;98.83
71764;BME280;59602;52.142;5.408;2023-08-31T07:25:59;101065.22;;;14.51;98.34
71764;BME280;59602;52.142;5.408;2023-08-31T07:28:27;101057.84;;;14.48;99.20
71764;BME280;59602;52.142;5.408;2023-08-31T08:26:20;101121.53;;;15.15;98.60
71764;BME280;59602;52.142;5.408;2023-08-31T08:29:20;101128.56;;;15.16;98.49
71764;BME280;59602;52.142;5.408;2023-08-31T08:31:50;101122.28;;;15.15;98.53
71764;BME280;59602;52.142;5.408;2023-08-31T08:34:16;101121.97;;;15.10;98.41
71764;BME280;59602;52.142;5.408;2023-08-31T08:36:43;101113.34;;;15.11;99.03
71764;BME280;59602;52.142;5.408;2023-08-31T08:39:11;101128.19;;;15.14;98.76
71764;BME280;59602;52.142;5.408;2023-08-31T08:41:39;101130.50;;;15.19;99.81
71764;BME280;59602;52.142;5.408;2023-08-31T08:44:07;101135.91;;;15.26;99.65
71764;BME280;59602;52.142;5.408;2023-08-31T08:46:34;101126.47;;;15.31;100.00
71764;BME280;59602;52.142;5.408;2023-08-31T08:49:02;101129.97;;;15.35;100.00
71764;BME280;59602;52.142;5.408;2023-08-31T08:51:32;101131.47;;;15.40;100.00
71764;BME280;59602;52.142;5.408;2023-08-31T08:53:59;101136.19;;;15.43;100.00
71764;BME280;59602;52.142;5.408;2023-08-31T08:56:27;101129.06;;;15.49;100.00
71764;BME280;59602;52.142;5.408;2023-08-31T08:58:53;101132.94;;;15.51;100.00
71764;BME280;59602;52.142;5.408;2023-08-31T09:01:21;101133.28;;;15.57;100.00
71764;BME280;59602;52.142;5.408;2023-08-31T09:03:50;101131.25;;;15.65;100.00
71764;BME280;59602;52.142;5.408;2023-08-31T09:06:17;101127.69;;;15.71;100.00
71764;BME280;59602;52.142;5.408;2023-08-31T09:08:44;101136.66;;;15.75;99.33
71764;BME280;59602;52.142;5.408;2023-08-31T09:11:19;101125.91;;;15.92;99.63
71764;BME280;59602;52.142;5.408;2023-08-31T09:13:47;101130.47;;;16.02;98.50
71764;BME280;59602;52.142;5.408;2023-08-31T09:16:30;101131.19;;;16.10;96.52
71764;BME280;59602;52.142;5.408;2023-08-31T09:18:59;101128.75;;;16.15;97.10
71764;BME280;59602;52.142;5.408;2023-08-31T09:21:35;101133.78;;;16.21;98.07
71764;BME280;59602;52.142;5.408;2023-08-31T09:24:02;101136.13;;;16.22;98.18
71764;BME280;59602;52.142;5.408;2023-08-31T09:26:37;101129.47;;;16.23;98.14
71764;BME280;59602;52.142;5.408;2023-08-31T09:29:06;101132.22;;;16.23;99.07
71764;BME280;59602;52.142;5.408;2023-08-31T09:31:33;101133.06;;;16.16;99.01
71764;BME280;59602;52.142;5.408;2023-08-31T09:34:01;101135.09;;;16.09;98.37
71764;BME280;59602;52.142;5.408;2023-08-31T09:36:27;101141.91;;;15.97;98.64
71764;BME280;59602;52.142;5.408;2023-08-31T09:38:57;101142.00;;;15.90;98.31
71764;BME280;59602;52.142;5.408;2023-08-31T09:41:28;101148.28;;;15.87;98.52
71764;BME280;59602;52.142;5.408;2023-08-31T09:44:20;101151.78;;;15.87;99.55
71764;BME280;59602;52.142;5.408;2023-08-31T09:47:16;101150.50;;;15.99;99.23
71764;BME280;59602;52.142;5.408;2023-08-31T09:50:39;101141.34;;;16.13;98.27
71764;BME280;59602;52.142;5.408;2023-08-31T09:53:12;101132.59;;;16.22;98.47
71764;BME280;59602;52.142;5.408;2023-08-31T09:55:43;101137.59;;;16.30;97.38
71764;BME280;59602;52.142;5.408;2023-08-31T09:58:20;101134.75;;;16.37;96.70
71764;BME280;59602;52.142;5.408;2023-08-31T10:01:05;101133.94;;;16.40;96.14
71764;BME280;59602;52.142;5.408;2023-08-31T10:03:50;101138.13;;;16.49;95.94
71764;BME280;59602;52.142;5.408;2023-08-31T10:06:18;101139.19;;;16.58;95.36
71764;BME280;59602;52.142;5.408;2023-08-31T10:08:48;101135.91;;;16.67;93.72
71764;BME280;59602;52.142;5.408;2023-08-31T10:11:21;101140.09;;;16.79;94.18
71764;BME280;59602;52.142;5.408;2023-08-31T10:14:03;101129.66;;;16.94;94.04
71764;BME280;59602;52.142;5.408;2023-08-31T10:16:30;101125.56;;;17.06;93.00
71764;BME280;59602;52.142;5.408;2023-08-31T10:19:01;101131.72;;;17.13;87.68
71764;BME280;59602;52.142;5.408;2023-08-31T10:28:44;101139.19;;;17.60;85.64
71764;BME280;59602;52.142;5.408;2023-08-31T10:31:18;101140.53;;;17.72;81.61
71764;BME280;59602;52.142;5.408;2023-08-31T10:33:47;101136.66;;;17.69;79.50
71764;BME280;59602;52.142;5.408;2023-08-31T10:36:50;101133.03;;;17.52;78.19
71764;BME280;59602;52.142;5.408;2023-08-31T10:40:11;101146.03;;;17.28;79.83
71764;BME280;59602;52.142;5.408;2023-08-31T10:42:30;101137.41;;;17.26;78.59
71764;BME280;59602;52.142;5.408;2023-08-31T10:45:06;101137.53;;;17.42;76.66
71764;BME280;59602;52.142;5.408;2023-08-31T10:47:41;101143.66;;;17.50;75.80
71764;BME280;59602;52.142;5.408;2023-08-31T10:50:18;101144.97;;;17.66;75.33
71764;BME280;59602;52.142;5.408;2023-08-31T10:52:49;101150.69;;;17.75;74.13
71764;BME280;59602;52.142;5.408;2023-08-31T10:55:17;101147.84;;;17.82;73.58
71764;BME280;59602;52.142;5.408;2023-08-31T10:57:44;101144.19;;;17.89;72.50
71764;BME280;59602;52.142;5.408;2023-08-31T11:00:50;101142.13;;;17.93;71.11
71764;BME280;59602;52.142;5.408;2023-08-31T11:03:29;101140.03;;;18.00;67.80
71764;BME280;59602;52.142;5.408;2023-08-31T11:06:11;101133.19;;;18.09;64.87
71764;BME280;59602;52.142;5.408;2023-08-31T11:08:37;101144.41;;;18.18;67.08
71764;BME280;59602;52.142;5.408;2023-08-31T11:11:07;101148.88;;;18.28;66.91
71764;BME280;59602;52.142;5.408;2023-08-31T11:13:36;101147.97;;;18.35;67.44
71764;BME280;59602;52.142;5.408;2023-08-31T11:16:49;101147.75;;;18.45;66.72
71764;BME280;59602;52.142;5.408;2023-08-31T11:19:35;101146.63;;;18.43;67.73
71764;BME280;59602;52.142;5.408;2023-08-31T11:22:06;101152.84;;;18.47;65.00
71764;BME280;59602;52.142;5.408;2023-08-31T11:24:59;101151.81;;;18.57;64.00
71764;BME280;59602;52.142;5.408;2023-08-31T11:27:32;101147.50;;;18.56;64.07
71764;BME280;59602;52.142;5.408;2023-08-31T11:30:36;101147.88;;;18.58;61.85
71764;BME280;59602;52.142;5.408;2023-08-31T11:33:40;101156.03;;;18.62;64.69
71764;BME280;59602;52.142;5.408;2023-08-31T11:36:33;101148.81;;;18.68;64.77
71764;BME280;59602;52.142;5.408;2023-08-31T11:39:17;101159.25;;;18.77;63.48
71764;BME280;59602;52.142;5.408;2023-08-31T11:41:44;101150.78;;;18.87;64.49
71764;BME280;59602;52.142;5.408;2023-08-31T11:44:13;101160.78;;;18.98;62.67
71764;BME280;59602;52.142;5.408;2023-08-31T11:46:46;101156.63;;;19.06;59.49
71764;BME280;59602;52.142;5.408;2023-08-31T11:49:44;101156.03;;;18.98;60.29
71764;BME280;59602;52.142;5.408;2023-08-31T11:52:49;101152.16;;;18.96;57.47
71764;BME280;59602;52.142;5.408;2023-08-31T11:59:18;101159.81;;;18.88;58.61
71764;BME280;59602;52.142;5.408;2023-08-31T12:02:01;101151.81;;;18.94;56.73
71764;BME280;59602;52.142;5.408;2023-08-31T12:04:44;101157.22;;;18.97;57.27
71764;BME280;59602;52.142;5.408;2023-08-31T12:07:11;101161.56;;;18.98;55.85
71764;BME280;59602;52.142;5.408;2023-08-31T12:09:38;101167.66;;;19.06;57.71
71764;BME280;59602;52.142;5.408;2023-08-31T12:14:53;101155.44;;;19.07;57.40
71764;BME280;59602;52.142;5.408;2023-08-31T12:17:55;101154.16;;;19.12;58.33
71764;BME280;59602;52.142;5.408;2023-08-31T12:20:26;101152.50;;;19.14;57.24
71764;BME280;59602;52.142;5.408;2023-08-31T12:23:11;101157.50;;;19.19;58.57
71764;BME280;59602;52.142;5.408;2023-08-31T12:25:38;101159.47;;;19.19;58.32
71764;BME280;59602;52.142;5.408;2023-08-31T12:28:05;101160.44;;;19.12;57.88
71764;BME280;59602;52.142;5.408;2023-08-31T12:30:32;101163.53;;;19.14;58.04
71764;BME280;59602;52.142;5.408;2023-08-31T12:33:25;101164.72;;;19.13;58.89
71764;BME280;59602;52.142;5.408;2023-08-31T12:35:51;101173.53;;;19.08;58.56
71764;BME280;59602;52.142;5.408;2023-08-31T12:38:18;101176.03;;;19.02;60.21
71764;BME280;59602;52.142;5.408;2023-08-31T12:40:46;101173.53;;;18.92;59.99
71764;BME280;59602;52.142;5.408;2023-08-31T12:43:13;101174.47;;;18.85;60.14
71764;BME280;59602;52.142;5.408;2023-08-31T12:45:40;101169.47;;;18.80;61.65
71764;BME280;59602;52.142;5.408;2023-08-31T12:48:06;101164.00;;;18.76;60.11
71764;BME280;59602;52.142;5.408;2023-08-31T12:50:36;101167.63;;;18.73;61.50
71764;BME280;59602;52.142;5.408;2023-08-31T12:53:03;101168.38;;;18.74;58.59
71764;BME280;59602;52.142;5.408;2023-08-31T12:55:29;101166.13;;;18.68;59.94
71764;BME280;59602;52.142;5.408;2023-08-31T12:57:57;101178.34;;;18.67;59.39
71764;BME280;59602;52.142;5.408;2023-08-31T13:00:24;101178.00;;;18.65;60.07
71764;BME280;59602;52.142;5.408;2023-08-31T13:02:51;101179.63;;;18.63;61.51
71764;BME280;59602;52.142;5.408;2023-08-31T13:05:19;101183.25;;;18.60;58.95
71764;BME280;59602;52.142;5.408;2023-08-31T13:07:47;101184.50;;;18.55;58.72
71764;BME280;59602;52.142;5.408;2023-08-31T13:10:13;101188.53;;;18.51;60.32
71764;BME280;59602;52.142;5.408;2023-08-31T13:12:40;101185.38;;;18.52;58.10
71764;BME280;59602;52.142;5.408;2023-08-31T13:15:07;101189.25;;;18.55;61.01
71764;BME280;59602;52.142;5.408;2023-08-31T13:17:35;101182.44;;;18.59;59.47
71764;BME280;59602;52.142;5.408;2023-08-31T13:20:05;101182.03;;;18.61;59.97
71764;BME280;59602;52.142;5.408;2023-08-31T13:22:42;101181.63;;;18.62;59.53
71764;BME280;59602;52.142;5.408;2023-08-31T13:25:09;101188.31;;;18.61;58.90
71764;BME280;59602;52.142;5.408;2023-08-31T13:27:38;101182.03;;;18.61;60.61
71764;BME280;59602;52.142;5.408;2023-08-31T13:30:13;101182.38;;;18.63;59.92
71764;BME280;59602;52.142;5.408;2023-08-31T13:32:40;101184.78;;;18.61;60.66
71764;BME280;59602;52.142;5.408;2023-08-31T13:35:09;101185.56;;;18.61;59.38
71764;BME280;59602;52.142;5.408;2023-08-31T13:37:35;101184.03;;;18.60;61.16
71764;BME280;59602;52.142;5.408;2023-08-31T13:40:03;101183.25;;;18.60;60.27
71764;BME280;59602;52.142;5.408;2023-08-31T13:42:36;101186.41;;;18.58;61.16
71764;BME280;59602;52.142;5.408;2023-08-31T13:45:06;101194.94;;;18.64;61.66
71764;BME280;59602;52.142;5.408;2023-08-31T13:47:36;101192.53;;;18.66;60.51
71764;BME280;59602;52.142;5.408;2023-08-31T13:50:04;101192.19;;;18.64;57.74
71764;BME280;59602;52.142;5.408;2023-08-31T13:52:31;101188.31;;;18.61;57.87
71764;BME280;59602;52.142;5.408;2023-08-31T13:54:58;101193.81;;;18.61;58.58
71764;BME280;59602;52.142;5.408;2023-08-31T13:57:24;101189.88;;;18.62;58.26
71764;BME280;59602;52.142;5.408;2023-08-31T13:59:52;101195.38;;;18.62;58.23
71764;BME280;59602;52.142;5.408;2023-08-31T14:02:19;101191.78;;;18.65;58.02
71764;BME280;59602;52.142;5.408;2023-08-31T14:04:46;101192.91;;;18.68;58.73
71764;BME280;59602;52.142;5.408;2023-08-31T14:07:14;101192.72;;;18.75;59.40
71764;BME280;59602;52.142;5.408;2023-08-31T14:09:44;101198.19;;;18.79;59.36
71764;BME280;59602;52.142;5.408;2023-08-31T14:12:11;101195.81;;;18.81;59.92
71764;BME280;59602;52.142;5.408;2023-08-31T14:14:37;101198.91;;;18.83;57.90
71764;BME280;59602;52.142;5.408;2023-08-31T14:17:05;101188.75;;;18.80;57.54
71764;BME280;59602;52.142;5.408;2023-08-31T14:19:33;101197.00;;;18.80;59.42
71764;BME280;59602;52.142;5.408;2023-08-31T14:22:02;101196.22;;;18.79;59.04
71764;BME280;59602;52.142;5.408;2023-08-31T14:24:32;101206.47;;;18.79;58.65
71764;BME280;59602;52.142;5.408;2023-08-31T14:26:58;101197.44;;;18.78;58.36
71764;BME280;59602;52.142;5.408;2023-08-31T14:29:25;101197.81;;;18.77;58.04
71764;BME280;59602;52.142;5.408;2023-08-31T14:31:52;101208.47;;;18.78;57.55
71764;BME280;59602;52.142;5.408;2023-08-31T14:34:21;101205.69;;;18.78;57.09
71764;BME280;59602;52.142;5.408;2023-08-31T14:36:48;101207.69;;;18.78;56.51
71764;BME280;59602;52.142;5.408;2023-08-31T14:39:15;101207.69;;;18.78;57.03
71764;BME280;59602;52.142;5.408;2023-08-31T14:41:41;101203.34;;;18.77;57.78
71764;BME280;59602;52.142;5.408;2023-08-31T14:44:10;101209.56;;;18.81;57.49
71764;BME280;59602;52.142;5.408;2023-08-31T14:46:36;101206.41;;;18.82;58.19
71764;BME280;59602;52.142;5.408;2023-08-31T14:49:03;101210.28;;;18.85;57.70
71764;BME280;59602;52.142;5.408;2023-08-31T14:51:30;101213.81;;;18.85;56.53
71764;BME280;59602;52.142;5.408;2023-08-31T14:53:57;101203.56;;;18.86;56.47
71764;BME280;59602;52.142;5.408;2023-08-31T14:56:24;101202.34;;;18.87;56.15
71764;BME280;59602;52.142;5.408;2023-08-31T14:58:50;101214.91;;;18.88;56.89
71764;BME280;59602;52.142;5.408;2023-08-31T15:01:17;101214.50;;;18.90;57.84
71764;BME280;59602;52.142;5.408;2023-08-31T15:03:46;101216.03;;;18.91;55.14
71764;BME280;59602;52.142;5.408;2023-08-31T15:06:15;101215.28;;;18.90;57.52
71764;BME280;59602;52.142;5.408;2023-08-31T15:08:42;101208.56;;;18.91;57.47
71764;BME280;59602;52.142;5.408;2023-08-31T15:11:09;101210.13;;;18.92;57.86
71764;BME280;59602;52.142;5.408;2023-08-31T15:13:39;101214.75;;;18.95;58.46
71764;BME280;59602;52.142;5.408;2023-08-31T15:16:06;101222.66;;;18.93;55.69
71764;BME280;59602;52.142;5.408;2023-08-31T15:18:33;101228.19;;;18.93;56.39
71764;BME280;59602;52.142;5.408;2023-08-31T15:21:00;101226.22;;;18.94;56.07
71764;BME280;59602;52.142;5.408;2023-08-31T15:23:27;101227.41;;;18.93;57.21
71764;BME280;59602;52.142;5.408;2023-08-31T15:26:00;101233.69;;;18.93;57.04
71764;BME280;59602;52.142;5.408;2023-08-31T15:28:27;101232.09;;;18.96;56.82
71764;BME280;59602;52.142;5.408;2023-08-31T15:30:53;101231.28;;;18.95;56.60
71764;BME280;59602;52.142;5.408;2023-08-31T15:33:20;101228.47;;;18.99;58.33
71764;BME280;59602;52.142;5.408;2023-08-31T15:35:47;101227.25;;;19.00;57.52
71764;BME280;59602;52.142;5.408;2023-08-31T15:38:14;101228.53;;;18.95;55.73
71764;BME280;59602;52.142;5.408;2023-08-31T15:40:46;101239.13;;;18.97;57.43
71764;BME280;59602;52.142;5.408;2023-08-31T15:43:16;101236.81;;;18.95;56.77
71764;BME280;59602;52.142;5.408;2023-08-31T15:45:45;101236.38;;;18.97;57.59
71764;BME280;59602;52.142;5.408;2023-08-31T15:48:13;101231.75;;;18.94;57.63
71764;BME280;59602;52.142;5.408;2023-08-31T15:50:40;101236.03;;;18.95;57.63
71764;BME280;59602;52.142;5.408;2023-08-31T15:53:08;101233.63;;;18.97;60.89
71764;BME280;59602;52.142;5.408;2023-08-31T15:55:37;101237.50;;;18.99;59.26
71764;BME280;59602;52.142;5.408;2023-08-31T15:58:04;101241.91;;;18.97;59.14
71764;BME280;59602;52.142;5.408;2023-08-31T16:00:32;101238.72;;;18.98;59.72
71764;BME280;59602;52.142;5.408;2023-08-31T16:03:01;101237.94;;;18.98;59.09
71764;BME280;59602;52.142;5.408;2023-08-31T16:05:27;101237.59;;;18.96;57.16
71764;BME280;59602;52.142;5.408;2023-08-31T16:07:54;101230.88;;;18.97;58.73
71764;BME280;59602;52.142;5.408;2023-08-31T16:10:21;101228.13;;;18.97;58.97
71764;BME280;59602;52.142;5.408;2023-08-31T16:12:47;101235.63;;;18.96;59.05
71764;BME280;59602;52.142;5.408;2023-08-31T16:15:14;101234.03;;;18.95;59.46
71764;BME280;59602;52.142;5.408;2023-08-31T16:17:41;101238.38;;;18.96;60.39
71764;BME280;59602;52.142;5.408;2023-08-31T16:20:08;101241.53;;;18.95;58.96
71764;BME280;59602;52.142;5.408;2023-08-31T16:22:37;101236.91;;;18.92;61.17
71764;BME280;59602;52.142;5.408;2023-08-31T16:25:05;101241.66;;;18.91;60.04
71764;BME280;59602;52.142;5.408;2023-08-31T16:27:32;101246.81;;;18.89;60.35
71764;BME280;59602;52.142;5.408;2023-08-31T16:29:59;101238.53;;;18.89;59.92
71764;BME280;59602;52.142;5.408;2023-08-31T16:32:25;101242.47;;;18.88;60.69
71764;BME280;59602;52.142;5.408;2023-08-31T16:34:52;101236.63;;;18.86;59.78
71764;BME280;59602;52.142;5.408;2023-08-31T16:37:20;101239.03;;;18.84;59.32
71764;BME280;59602;52.142;5.408;2023-08-31T16:39:46;101234.03;;;18.79;58.17
71764;BME280;59602;52.142;5.408;2023-08-31T16:42:13;101234.03;;;18.79;58.23
71764;BME280;59602;52.142;5.408;2023-08-31T16:44:40;101236.78;;;18.79;60.82
71764;BME280;59602;52.142;5.408;2023-08-31T16:47:07;101244.66;;;18.77;58.76
71764;BME280;59602;52.142;5.408;2023-08-31T16:49:34;101243.88;;;18.76;61.15
71764;BME280;59602;52.142;5.408;2023-08-31T16:52:01;101240.78;;;18.74;59.62
71764;BME280;59602;52.142;5.408;2023-08-31T16:54:30;101242.41;;;18.72;61.20
71764;BME280;59602;52.142;5.408;2023-08-31T16:56:56;101236.13;;;18.71;62.25
71764;BME280;59602;52.142;5.408;2023-08-31T16:59:23;101234.97;;;18.68;62.62
71764;BME280;59602;52.142;5.408;2023-08-31T17:01:49;101246.44;;;18.67;59.94
71764;BME280;59602;52.142;5.408;2023-08-31T17:04:16;101230.75;;;18.64;61.56
71764;BME280;59602;52.142;5.408;2023-08-31T17:06:43;101237.06;;;18.64;63.44
71764;BME280;59602;52.142;5.408;2023-08-31T17:09:11;101238.25;;;18.63;62.82
71764;BME280;59602;52.142;5.408;2023-08-31T17:11:37;101241.41;;;18.62;61.95
71764;BME280;59602;52.142;5.408;2023-08-31T17:14:05;101241.84;;;18.60;62.92
71764;BME280;59602;52.142;5.408;2023-08-31T17:16:32;101242.34;;;18.55;64.55
71764;BME280;59602;52.142;5.408;2023-08-31T17:18:59;101235.34;;;18.51;65.09
71764;BME280;59602;52.142;5.408;2023-08-31T17:21:26;101242.13;;;18.46;65.39
71764;BME280;59602;52.142;5.408;2023-08-31T17:23:52;101239.03;;;18.44;66.32